Time;durP1;ratioP1;P1;durP2;ratioP2;P2;SDS_P1;SDS_P2;PMS_P1;PMS_P2;Temp;Humidity;BMP_temperature;BMP_pressure;BME280_temperature;BME280_humidity;BME280_pressure;Samples;Min_cycle;Max_cycle;Signal;HPM_P1;HPM_P2
2021/12/13 00:01:06;;;;;;;39.47;12.23;;;;;;;-3.43;80.31;100514.13;5024443;28;20049;-59
2021/12/13 00:03:45;;;;;;;38.17;11.70;;;;;;;-3.39;80.22;100519.94;5031240;28;20131;-58
2021/12/13 00:06:18;;;;;;;31.23;9.38;;;;;;;-3.42;80.37;100520.38;5031423;28;20057;-58
2021/12/13 00:08:50;;;;;;;36.72;11.45;;;;;;;-3.47;80.50;100515.59;5028282;28;20080;-58
2021/12/13 00:11:21;;;;;;;40.08;11.85;;;;;;;-3.47;80.58;100507.44;5031680;28;20048;-57
2021/12/13 00:14:08;;;;;;;37.55;10.68;;;;;;;-3.41;80.93;100513.91;5028587;28;20416;-59
2021/12/13 00:16:40;;;;;;;36.45;11.05;;;;;;;-3.39;79.96;100515.34;5031257;28;20049;-59
2021/12/13 00:19:13;;;;;;;42.83;10.30;;;;;;;-3.40;80.38;100519.13;5031856;28;20134;-58
2021/12/13 00:21:44;;;;;;;38.42;10.93;;;;;;;-3.46;80.79;100506.41;5030011;28;20046;-59
2021/12/13 00:24:25;;;;;;;40.33;11.60;;;;;;;-3.36;80.34;100514.06;5031092;28;20054;-58
2021/12/13 00:27:13;;;;;;;31.83;11.02;;;;;;;-3.39;80.43;100512.63;5023040;28;20061;-59
2021/12/13 00:29:55;;;;;;;32.53;10.25;;;;;;;-3.41;80.10;100528.31;5031185;28;20053;-58
2021/12/13 00:32:32;;;;;;;39.70;12.15;;;;;;;-3.37;80.51;100523.28;5029687;28;20085;-59
2021/12/13 00:35:04;;;;;;;61.58;16.73;;;;;;;-3.31;81.12;100523.25;5031332;28;20077;-60
2021/12/13 00:37:38;;;;;;;38.10;11.85;;;;;;;-3.30;79.69;100524.91;5030475;28;20053;-59
2021/12/13 00:40:15;;;;;;;41.78;11.45;;;;;;;-3.23;80.43;100535.75;5031334;28;20047;-59
2021/12/13 00:43:05;;;;;;;38.53;12.80;;;;;;;-3.22;79.93;100530.09;5031737;28;20053;-59
2021/12/13 00:45:36;;;;;;;49.63;14.75;;;;;;;-3.26;79.77;100531.56;5031731;28;20049;-60
2021/12/13 00:48:06;;;;;;;39.35;10.77;;;;;;;-3.28;80.54;100533.69;5031316;28;20045;-65
2021/12/13 00:50:40;;;;;;;35.35;12.68;;;;;;;-3.24;79.86;100524.03;5027808;28;20085;-64
2021/12/13 00:53:09;;;;;;;40.22;12.43;;;;;;;-3.26;80.32;100520.69;5026784;28;20513;-64
2021/12/13 00:55:37;;;;;;;36.13;11.43;;;;;;;-3.23;79.92;100514.81;5027955;28;20076;-64
2021/12/13 00:58:09;;;;;;;42.95;11.05;;;;;;;-3.13;79.97;100517.03;5031196;28;20144;-64
2021/12/13 01:00:46;;;;;;;27.83;10.98;;;;;;;-3.06;80.00;100515.94;5033149;28;20049;-64
2021/12/13 01:03:18;;;;;;;39.72;11.27;;;;;;;-3.06;79.50;100515.94;5028916;28;20049;-64
2021/12/13 01:06:23;;;;;;;47.72;12.55;;;;;;;-3.18;79.38;100517.69;5035463;28;20444;-64
2021/12/13 01:08:59;;;;;;;38.42;10.52;;;;;;;-3.28;80.08;100500.19;5033997;28;20045;-64
2021/12/13 01:11:50;;;;;;;35.90;12.18;;;;;;;-3.20;80.28;100506.19;5033404;28;20050;-64
2021/12/13 01:15:03;;;;;;;48.03;12.77;;;;;;;-3.14;79.43;100505.31;5033283;28;20066;-64
2021/12/13 01:17:44;;;;;;;24.58;8.00;;;;;;;-3.17;79.94;100505.75;5032712;28;20541;-63
2021/12/13 01:20:18;;;;;;;26.20;9.52;;;;;;;-3.22;79.81;100505.59;5034559;28;20072;-63
2021/12/13 01:22:57;;;;;;;35.85;11.43;;;;;;;-3.19;80.11;100507.88;5034809;28;20136;-64
2021/12/13 01:25:59;;;;;;;31.70;10.15;;;;;;;-3.10;80.05;100501.13;5026108;28;20515;-63
2021/12/13 01:28:28;;;;;;;35.35;9.68;;;;;;;-3.11;79.46;100502.16;5033380;28;20100;-64
2021/12/13 01:31:03;;;;;;;31.75;9.13;;;;;;;-3.13;79.09;100496.13;5033777;28;20453;-64
2021/12/13 01:33:32;;;;;;;28.70;9.85;;;;;;;-3.15;79.60;100500.09;5033973;28;20398;-64
2021/12/13 01:36:03;;;;;;;33.08;10.18;;;;;;;-3.08;79.68;100509.06;5034585;28;20045;-64
2021/12/13 01:38:40;;;;;;;28.73;9.82;;;;;;;-3.03;79.70;100509.22;5026109;28;20053;-64
2021/12/13 01:41:16;;;;;;;35.08;9.15;;;;;;;-3.06;79.37;100502.34;5034903;28;20045;-64
2021/12/13 01:43:54;;;;;;;23.33;7.50;;;;;;;-3.05;79.58;100504.00;5033733;28;20084;-64
2021/12/13 01:46:23;;;;;;;31.20;8.80;;;;;;;-3.07;79.17;100519.72;5033392;28;20055;-64
2021/12/13 01:48:53;;;;;;;28.63;9.23;;;;;;;-3.20;79.47;100508.09;5033896;28;20409;-64
2021/12/13 01:51:26;;;;;;;24.27;7.80;;;;;;;-3.30;79.43;100497.69;5034753;28;20053;-64
2021/12/13 01:54:01;;;;;;;36.88;9.52;;;;;;;-3.38;79.66;100487.06;5033961;28;20050;-64
2021/12/13 01:56:44;;;;;;;24.00;8.82;;;;;;;-3.33;79.28;100489.97;5034552;28;20044;-63
2021/12/13 02:02:17;;;;;;;28.23;9.18;;;;;;;-3.20;79.78;100498.03;5033884;28;20045;-64
2021/12/13 02:04:54;;;;;;;29.08;7.75;;;;;;;-3.17;79.45;100497.59;5027393;28;20099;-63
2021/12/13 02:07:26;;;;;;;26.80;9.00;;;;;;;-3.13;79.57;100477.06;5032203;28;20140;-65
2021/12/13 02:09:56;;;;;;;27.23;9.25;;;;;;;-3.07;79.22;100497.97;5033760;28;20092;-64
2021/12/13 02:12:28;;;;;;;25.83;8.73;;;;;;;-3.06;79.19;100488.72;5033648;28;20049;-64
2021/12/13 02:17:44;;;;;;;27.27;9.07;;;;;;;-3.13;79.11;100482.50;5031790;28;20124;-65
2021/12/13 02:20:18;;;;;;;19.50;6.82;;;;;;;-3.11;79.11;100474.13;5033491;28;20049;-63
2021/12/13 02:22:48;;;;;;;14.48;5.90;;;;;;;-3.12;78.94;100473.28;5033749;28;20057;-64
2021/12/13 02:25:32;;;;;;;20.85;7.13;;;;;;;-3.19;79.48;100475.25;5032663;28;20132;-64
2021/12/13 02:28:08;;;;;;;25.20;7.95;;;;;;;-3.20;78.92;100470.84;5024078;28;20088;-62
2021/12/13 02:30:44;;;;;;;24.63;7.70;;;;;;;-3.29;79.28;100461.28;5033358;28;20045;-58
2021/12/13 02:33:17;;;;;;;25.00;8.20;;;;;;;-3.32;79.62;100456.28;5033619;28;20135;-58
2021/12/13 02:35:49;;;;;;;22.98;7.18;;;;;;;-3.28;79.61;100445.81;5033096;28;20056;-58
2021/12/13 02:38:18;;;;;;;24.83;7.85;;;;;;;-3.27;79.58;100442.00;5025555;28;20050;-58
2021/12/13 02:40:46;;;;;;;20.48;6.68;;;;;;;-3.31;79.12;100452.53;5032883;28;20103;-59
2021/12/13 02:43:17;;;;;;;24.33;7.57;;;;;;;-3.25;79.58;100456.25;5033370;28;20041;-58
2021/12/13 02:45:49;;;;;;;26.63;8.18;;;;;;;-3.17;79.78;100454.06;5033116;28;20045;-58
2021/12/13 02:48:40;;;;;;;25.80;8.18;;;;;;;-3.09;79.16;100458.41;5033067;28;20427;-57
2021/12/13 02:51:30;;;;;;;22.50;6.95;;;;;;;-3.18;79.15;100457.00;5033872;28;20122;-56
2021/12/13 02:54:06;;;;;;;24.27;8.50;;;;;;;-3.24;79.60;100468.78;5033059;28;20118;-58
2021/12/13 02:56:55;;;;;;;21.67;6.55;;;;;;;-3.26;79.31;100462.75;5033474;28;20053;-59
2021/12/13 02:59:25;;;;;;;27.45;9.65;;;;;;;-3.29;79.21;100449.59;5034724;28;20061;-58
2021/12/13 03:01:58;;;;;;;24.27;7.55;;;;;;;-3.30;79.36;100459.63;5032496;28;20145;-58
2021/12/13 03:04:27;;;;;;;18.45;6.70;;;;;;;-3.26;78.97;100460.03;5021084;28;20050;-58
2021/12/13 03:07:03;;;;;;;21.95;7.15;;;;;;;-3.32;80.04;100456.28;5032362;28;20085;-59
2021/12/13 03:09:32;;;;;;;22.55;7.70;;;;;;;-3.31;79.38;100452.53;5030425;28;20054;-58
2021/12/13 03:12:00;;;;;;;27.25;7.82;;;;;;;-3.23;79.32;100440.53;5032573;28;20053;-58
2021/12/13 03:14:34;;;;;;;27.30;8.73;;;;;;;-3.16;79.44;100444.03;5029037;28;20099;-58
2021/12/13 03:17:09;;;;;;;26.33;9.00;;;;;;;-3.13;79.16;100438.13;5032395;28;20077;-57
2021/12/13 03:19:41;;;;;;;24.40;8.68;;;;;;;-3.12;79.41;100435.19;5032534;28;20136;-58
2021/12/13 03:22:36;;;;;;;27.88;8.75;;;;;;;-3.17;79.64;100418.69;5031996;28;20061;-58
2021/12/13 03:25:08;;;;;;;29.95;8.05;;;;;;;-3.23;79.16;100416.06;5028329;28;20069;-59
2021/12/13 03:28:00;;;;;;;27.42;9.27;;;;;;;-3.17;79.46;100428.75;5028991;28;20045;-58
2021/12/13 03:30:59;;;;;;;34.70;10.45;;;;;;;-3.15;79.61;100434.78;5030570;28;20468;-58
2021/12/13 03:33:39;;;;;;;33.55;8.45;;;;;;;-3.15;79.79;100421.19;5031402;28;20416;-55
2021/12/13 03:36:15;;;;;;;34.92;9.02;;;;;;;-3.16;79.56;100433.97;5032366;28;20042;-58
2021/12/13 03:38:48;;;;;;;23.23;8.20;;;;;;;-3.15;79.32;100435.63;5032090;28;20407;-57
2021/12/13 03:41:19;;;;;;;23.83;8.35;;;;;;;-3.24;80.21;100434.25;5029127;28;20056;-57
2021/12/13 03:43:52;;;;;;;30.98;9.40;;;;;;;-3.25;80.21;100440.75;5031976;28;20056;-59
2021/12/13 03:46:22;;;;;;;21.48;7.88;;;;;;;-3.19;79.75;100442.59;5029995;28;20045;-58
2021/12/13 03:48:52;;;;;;;35.28;9.82;;;;;;;-3.14;79.57;100420.97;5031662;28;20057;-59
2021/12/13 03:51:24;;;;;;;25.05;8.80;;;;;;;-3.09;79.57;100418.41;5032357;28;20057;-59
2021/12/13 03:53:55;;;;;;;38.22;11.65;;;;;;;-3.04;79.52;100423.19;5031521;28;20084;-57
2021/12/13 03:56:29;;;;;;;24.13;8.13;;;;;;;-3.01;79.22;100422.75;5032193;28;20053;-58
2021/12/13 03:59:01;;;;;;;29.33;8.55;;;;;;;-3.04;79.53;100420.47;5030747;28;20148;-59
2021/12/13 04:01:36;;;;;;;22.65;7.18;;;;;;;-3.10;79.81;100408.59;5032168;28;20049;-59
2021/12/13 04:04:07;;;;;;;25.92;8.40;;;;;;;-3.09;79.78;100402.09;5028475;28;20461;-60
2021/12/13 04:06:37;;;;;;;;;;;;;;;-3.11;79.37;100417.81;5032538;28;20056;-57
2021/12/13 04:09:04;;;;;;;23.70;7.53;;;;;;;-3.15;80.00;100411.16;5031317;28;19971;-59
2021/12/13 04:11:31;;;;;;;28.75;8.50;;;;;;;-3.17;80.19;100402.38;5032305;28;20049;-59
2021/12/13 04:14:07;;;;;;;32.58;8.63;;;;;;;-3.15;79.72;100413.03;5031206;28;20065;-60
2021/12/13 04:17:19;;;;;;;26.80;8.13;;;;;;;-3.09;79.65;100404.81;5031933;28;20136;-59
2021/12/13 04:20:09;;;;;;;27.83;9.18;;;;;;;-3.09;79.98;100396.66;5029585;28;20045;-58
2021/12/13 04:22:45;;;;;;;29.05;8.90;;;;;;;-3.10;79.89;100403.16;5031207;28;20124;-58
2021/12/13 04:25:17;;;;;;;34.83;9.38;;;;;;;-3.08;79.72;100406.47;5032009;28;20483;-59
2021/12/13 04:27:53;;;;;;;37.90;10.02;;;;;;;-3.02;80.17;100391.16;5029954;28;20534;-59
2021/12/13 04:30:29;;;;;;;29.10;8.88;;;;;;;-3.00;80.08;100406.19;5030803;28;20560;-59
2021/12/13 04:33:01;;;;;;;25.48;8.18;;;;;;;-3.06;79.98;100398.94;5031625;28;20416;-57
2021/12/13 04:35:30;;;;;;;30.52;10.30;;;;;;;-3.09;79.56;100406.69;5032804;28;20092;-57
2021/12/13 04:38:00;;;;;;;36.70;9.93;;;;;;;-3.12;79.94;100409.88;5033107;28;20513;-59
2021/12/13 04:40:34;;;;;;;31.85;9.23;;;;;;;-3.14;80.13;100412.00;5030408;28;20084;-58
2021/12/13 04:43:12;;;;;;;24.92;8.20;;;;;;;-3.09;79.55;100402.09;5031800;28;20064;-60
2021/12/13 04:45:44;;;;;;;28.42;9.13;;;;;;;-3.03;80.25;100395.75;5035447;28;20107;-58
2021/12/13 04:48:16;;;;;;;30.42;8.43;;;;;;;-2.98;79.69;100393.22;5035444;28;20132;-58
2021/12/13 04:51:15;;;;;;;23.73;7.88;;;;;;;-2.97;80.38;100394.84;5027070;28;20064;-60
2021/12/13 04:53:49;;;;;;;27.48;8.65;;;;;;;-2.98;79.62;100387.75;5038441;28;20148;-60
2021/12/13 04:56:24;;;;;;;42.67;11.00;;;;;;;-2.93;80.06;100401.50;5034808;28;20063;-61
2021/12/13 04:58:54;;;;;;;29.88;9.25;;;;;;;-2.91;79.53;100383.06;5035115;28;20140;-59
2021/12/13 05:01:23;;;;;;;28.85;10.05;;;;;;;-2.90;79.82;100390.16;5034477;28;20049;-59
2021/12/13 05:03:58;;;;;;;24.25;8.73;;;;;;;-2.85;79.82;100373.16;5034150;28;20045;-59
2021/12/13 05:06:31;;;;;;;27.67;7.88;;;;;;;-2.83;80.24;100382.78;5031551;28;20538;-55
2021/12/13 05:09:02;;;;;;;33.55;9.57;;;;;;;-2.88;80.08;100376.34;5034702;28;20412;-59
2021/12/13 05:11:34;;;;;;;27.65;9.57;;;;;;;-2.91;79.71;100368.63;5031909;28;20537;-58
2021/12/13 05:14:03;;;;;;;38.05;10.70;;;;;;;-2.96;79.50;100365.78;5034471;28;20065;-60
2021/12/13 05:16:45;;;;;;;33.65;11.23;;;;;;;-2.93;80.21;100379.72;5031895;28;20050;-58
2021/12/13 05:19:14;;;;;;;30.27;9.98;;;;;;;-2.93;79.76;100382.47;5034526;28;20100;-64
2021/12/13 05:21:41;;;;;;;32.20;9.53;;;;;;;-2.92;79.25;100386.88;5035209;28;20091;-65
2021/12/13 05:24:19;;;;;;;32.30;7.82;;;;;;;-2.87;79.78;100378.84;5034099;28;20057;-65
2021/12/13 05:27:18;;;;;;;32.67;9.23;;;;;;;-2.89;80.07;100370.09;5026352;28;20128;-64
2021/12/13 05:29:48;;;;;;;26.58;8.40;;;;;;;-2.91;79.38;100374.91;5037624;28;20092;-65
2021/12/13 05:32:26;;;;;;;28.50;9.25;;;;;;;-2.85;80.08;100382.19;5034496;28;20416;-64
2021/12/13 05:35:08;;;;;;;26.60;9.57;;;;;;;-2.81;79.93;100380.66;5031396;28;20057;-65
2021/12/13 05:37:49;;;;;;;28.55;8.93;;;;;;;-2.80;79.90;100370.59;5034159;28;20068;-65
2021/12/13 05:40:24;;;;;;;;;;;;;;;-2.83;80.18;100376.50;5026854;28;20045;-64
2021/12/13 05:42:55;;;;;;;27.60;8.32;;;;;;;-2.81;78.89;100388.00;5032498;28;20016;-64
2021/12/13 05:45:37;;;;;;;29.73;8.10;;;;;;;-2.83;79.30;100380.06;5034093;28;20052;-65
2021/12/13 05:48:17;;;;;;;33.42;9.48;;;;;;;-2.79;79.70;100383.16;5033837;28;20060;-65
2021/12/13 05:50:52;;;;;;;37.95;9.75;;;;;;;-2.78;79.89;100387.56;5025572;28;20137;-65
2021/12/13 05:53:23;;;;;;;24.63;9.27;;;;;;;-2.73;79.61;100390.41;5031338;28;20128;-64
2021/12/13 05:56:05;;;;;;;33.83;9.90;;;;;;;-2.70;79.77;100395.41;5033788;28;20049;-64
2021/12/13 05:58:39;;;;;;;37.45;10.65;;;;;;;-2.71;79.91;100388.31;5034160;28;20060;-64
2021/12/13 06:01:18;;;;;;;30.27;9.52;;;;;;;-2.74;79.54;100388.75;5033987;28;20103;-65
2021/12/13 06:04:08;;;;;;;32.97;11.80;;;;;;;-2.74;79.92;100383.31;5033477;28;20445;-65
2021/12/13 06:06:46;;;;;;;39.00;12.00;;;;;;;-2.75;79.35;100385.19;5033904;28;20045;-64
2021/12/13 06:09:39;;;;;;;36.25;10.90;;;;;;;-2.73;80.16;100380.38;5033175;28;20472;-58
2021/12/13 06:12:13;;;;;;;33.38;9.50;;;;;;;-2.72;79.66;100381.22;5034473;28;20053;-59
2021/12/13 06:14:41;;;;;;;37.45;10.55;;;;;;;-2.68;79.50;100377.81;5033065;28;20082;-56
2021/12/13 06:17:18;;;;;;;42.50;10.57;;;;;;;-2.61;79.97;100374.97;5034155;28;20136;-57
2021/12/13 06:19:59;;;;;;;39.63;11.73;;;;;;;-2.58;79.67;100378.09;5033577;28;20057;-57
2021/12/13 06:22:30;;;;;;;35.10;9.73;;;;;;;-2.58;79.46;100380.81;5033694;28;20049;-60
2021/12/13 06:25:08;;;;;;;44.15;11.35;;;;;;;-2.54;79.27;100368.44;5031276;28;20160;-59
2021/12/13 06:27:50;;;;;;;32.65;9.70;;;;;;;-2.57;79.98;100384.38;5028715;28;20532;-59
2021/12/13 06:30:17;;;;;;;36.08;10.77;;;;;;;-2.60;79.82;100374.75;5033561;28;20045;-58
2021/12/13 06:32:57;;;;;;;32.53;9.93;;;;;;;-2.56;79.05;100375.97;5031364;28;20057;-58
2021/12/13 06:35:44;;;;;;;28.50;9.57;;;;;;;-2.53;79.33;100380.13;5033139;28;20049;-60
2021/12/13 06:38:21;;;;;;;38.58;12.40;;;;;;;-2.53;79.26;100375.53;5032930;28;20053;-59
2021/12/13 06:41:03;;;;;;;32.25;9.15;;;;;;;-2.53;79.64;100369.25;5032160;28;20060;-60
2021/12/13 06:43:32;;;;;;;35.70;9.20;;;;;;;-2.58;79.38;100369.09;5030848;28;20083;-58
2021/12/13 06:46:09;;;;;;;37.95;10.80;;;;;;;-2.67;79.85;100367.72;5033149;28;20128;-59
2021/12/13 06:48:46;;;;;;;34.35;10.00;;;;;;;-2.59;79.64;100371.00;5032871;28;20049;-59
2021/12/13 06:51:17;;;;;;;32.83;9.23;;;;;;;-2.61;79.41;100373.09;5024389;28;20056;-59
2021/12/13 06:54:06;;;;;;;31.13;9.52;;;;;;;-2.60;79.40;100374.75;5032838;28;20045;-60
2021/12/13 06:56:35;;;;;;;44.92;9.75;;;;;;;-2.55;79.38;100372.19;5032925;28;20479;-58
2021/12/13 06:59:06;;;;;;;43.25;10.82;;;;;;;-2.47;79.21;100371.06;5031946;28;20495;-58
2021/12/13 07:01:35;;;;;;;32.60;10.77;;;;;;;-2.41;79.49;100372.84;5032339;28;20516;-59
2021/12/13 07:04:07;;;;;;;40.63;11.15;;;;;;;-2.42;79.23;100372.06;5030950;28;20570;-59
2021/12/13 07:06:34;;;;;;;44.50;11.32;;;;;;;-2.48;78.65;100367.53;5032833;28;20053;-60
2021/12/13 07:09:07;;;;;;;47.08;11.57;;;;;;;-2.45;79.47;100364.34;5032507;28;20056;-59
2021/12/13 07:11:42;;;;;;;29.70;10.45;;;;;;;-2.45;79.04;100377.97;5032140;28;20060;-58
2021/12/13 07:14:13;;;;;;;39.63;11.68;;;;;;;-2.54;79.13;100384.78;5032418;28;20073;-59
2021/12/13 07:16:47;;;;;;;49.17;12.70;;;;;;;-2.46;79.25;100380.91;5032502;28;20052;-59
2021/12/13 07:19:18;;;;;;;36.50;10.63;;;;;;;-2.44;78.81;100385.06;5032477;28;20060;-59
2021/12/13 07:21:57;;;;;;;49.28;11.05;;;;;;;-2.39;79.40;100387.94;5032702;28;20053;-59
2021/12/13 07:25:01;;;;;;;41.95;10.75;;;;;;;-2.35;78.76;100391.84;5031020;28;20087;-59
2021/12/13 07:27:33;;;;;;;44.85;11.70;;;;;;;-2.36;78.92;100392.09;5030576;28;20504;-59
2021/12/13 07:30:17;;;;;;;34.47;11.43;;;;;;;-2.32;78.72;100394.13;5031314;28;20140;-64
2021/12/13 07:32:53;;;;;;;45.58;12.45;;;;;;;-2.30;78.69;100402.91;5034550;28;20443;-60
2021/12/13 07:35:36;;;;;;;36.83;10.90;;;;;;;-2.26;79.07;100406.84;5032824;28;20053;-65
2021/12/13 07:38:18;;;;;;;39.95;10.48;;;;;;;-2.24;78.60;100412.91;5030459;28;20057;-65
2021/12/13 07:40:58;;;;;;;42.08;11.77;;;;;;;-2.25;78.69;100403.03;5030977;28;20041;-64
2021/12/13 07:43:37;;;;;;;37.23;11.23;;;;;;;-2.23;78.87;100409.09;5031987;28;20560;-64
2021/12/13 07:46:09;;;;;;;41.80;10.93;;;;;;;-2.22;78.33;100410.75;5031538;28;20049;-64
2021/12/13 07:48:41;;;;;;;44.28;12.82;;;;;;;-2.18;78.59;100403.81;5031952;28;20762;-64
2021/12/13 07:51:30;;;;;;;52.20;13.95;;;;;;;-2.32;78.67;100405.03;5018346;28;20140;-64
2021/12/13 07:53:56;;;;;;;58.28;14.23;;;;;;;-2.32;78.72;100399.56;5031843;28;20505;-61
2021/12/13 07:56:39;;;;;;;43.42;12.45;;;;;;;-2.23;78.41;100398.19;5031423;28;20049;-61
2021/12/13 07:59:24;;;;;;;38.05;10.88;;;;;;;-2.18;78.56;100406.53;5031967;28;20057;-61
2021/12/13 08:02:31;;;;;;;40.90;12.52;;;;;;;-2.18;78.64;100405.69;5032052;28;20491;-61
2021/12/13 08:05:11;;;;;;;44.20;11.57;;;;;;;-2.26;78.44;100408.72;5031430;28;20467;-61
2021/12/13 08:07:54;;;;;;;53.47;15.32;;;;;;;-2.30;78.29;100413.81;5032042;28;20212;-62
2021/12/13 08:10:33;;;;;;;49.13;12.60;;;;;;;-2.38;78.38;100405.09;5029199;28;20133;-61
2021/12/13 08:13:06;;;;;;;47.22;12.48;;;;;;;-2.34;78.35;100417.22;5030915;28;20055;-61
2021/12/13 08:15:43;;;;;;;47.95;11.48;;;;;;;-2.28;78.29;100408.94;5031664;28;20523;-63
2021/12/13 08:18:33;;;;;;;39.58;13.38;;;;;;;-2.29;78.19;100404.56;5030909;28;20050;-62
2021/12/13 08:21:05;;;;;;;49.25;12.65;;;;;;;-2.36;78.02;100409.28;5031312;28;20057;-61
2021/12/13 08:23:50;;;;;;;39.15;13.27;;;;;;;-2.37;78.26;100418.47;5029771;28;20073;-62
2021/12/13 08:26:31;;;;;;;52.67;13.82;;;;;;;-2.40;78.29;100418.94;5029980;28;20053;-63
2021/12/13 08:29:07;;;;;;;52.33;14.13;;;;;;;-2.42;78.44;100402.00;5031725;28;20479;-61
2021/12/13 08:31:39;;;;;;;42.35;10.75;;;;;;;-2.35;78.36;100405.47;5030657;28;20128;-62
2021/12/13 08:34:11;;;;;;;46.75;12.48;;;;;;;-2.31;78.16;100412.13;5031361;28;20068;-62
2021/12/13 08:36:45;;;;;;;46.88;13.10;;;;;;;-2.23;77.84;100409.09;5031011;28;20046;-61
2021/12/13 08:39:17;;;;;;;49.22;14.88;;;;;;;-2.16;77.98;100409.84;5031306;28;20053;-62
2021/12/13 08:41:52;;;;;;;102.25;28.10;;;;;;;-2.10;77.75;100402.66;5031200;28;20049;-61
2021/12/13 08:44:34;;;;;;;55.15;14.45;;;;;;;-2.03;77.57;100406.13;5030179;28;20465;-63
2021/12/13 08:47:16;;;;;;;50.65;13.13;;;;;;;-2.12;77.65;100404.78;5028174;28;20049;-62
2021/12/13 08:49:48;;;;;;;48.45;13.15;;;;;;;-2.12;77.83;100407.50;5030718;28;20480;-62
2021/12/13 08:52:25;;;;;;;42.55;12.30;;;;;;;-2.17;77.80;100402.72;5031479;28;20053;-62
2021/12/13 08:55:07;;;;;;;45.83;12.30;;;;;;;-2.16;78.25;100401.66;5030705;28;20053;-62
2021/12/13 08:57:46;;;;;;;40.28;12.60;;;;;;;-2.07;77.82;100402.19;5031359;28;20076;-62
2021/12/13 09:00:13;;;;;;;51.80;14.27;;;;;;;-2.05;77.66;100391.88;5031726;28;20100;-62
2021/12/13 09:02:46;;;;;;;40.55;13.15;;;;;;;-2.04;77.57;100408.00;5031770;28;20052;-63
2021/12/13 09:05:18;;;;;;;44.45;13.27;;;;;;;-2.03;77.66;100393.31;5030707;28;20077;-62
2021/12/13 09:08:06;;;;;;;51.47;13.43;;;;;;;-2.08;77.44;100390.44;5030746;28;20045;-62
2021/12/13 09:10:48;;;;;;;53.00;14.90;;;;;;;-2.11;77.80;100380.00;5029619;28;20049;-62
2021/12/13 09:13:32;;;;;;;39.58;12.40;;;;;;;-2.10;77.56;100380.84;5029282;28;20355;-62
2021/12/13 09:15:59;;;;;;;51.03;14.90;;;;;;;-2.08;77.53;100382.28;5030987;28;20234;-62
2021/12/13 09:18:26;;;;;;;51.92;13.77;;;;;;;-2.03;77.79;100362.50;5030140;28;20084;-61
2021/12/13 09:20:55;;;;;;;46.40;14.18;;;;;;;-1.94;77.54;100359.22;5024124;28;20057;-62
2021/12/13 09:23:26;;;;;;;55.83;16.73;;;;;;;-1.91;77.24;100356.03;5034146;28;20412;-62
2021/12/13 09:26:02;;;;;;;44.10;13.73;;;;;;;-1.86;77.38;100352.63;5034409;28;20188;-61
2021/12/13 09:28:37;;;;;;;40.28;12.10;;;;;;;-1.87;77.37;100357.22;5049451;28;20045;-63
2021/12/13 09:31:11;;;;;;;51.13;15.32;;;;;;;-1.83;77.17;100354.03;5052783;28;20061;-63
2021/12/13 09:33:46;;;;;;;46.53;14.13;;;;;;;-1.83;77.20;100352.97;5052233;28;20045;-61
2021/12/13 09:36:18;;;;;;;48.83;13.30;;;;;;;-1.76;77.13;100350.16;5051050;28;20053;-62
2021/12/13 09:39:17;;;;;;;55.78;15.60;;;;;;;-1.78;76.92;100351.44;5048916;28;20045;-65
2021/12/13 09:41:57;;;;;;;48.13;14.13;;;;;;;-1.74;76.93;100347.19;5050488;28;20057;-61
2021/12/13 09:45:02;;;;;;;58.22;14.27;;;;;;;-1.67;76.85;100337.00;5052543;28;20060;-62
2021/12/13 09:47:39;;;;;;;45.00;13.57;;;;;;;-1.66;76.72;100344.13;5033738;28;20128;-62
2021/12/13 09:50:17;;;;;;;53.83;14.73;;;;;;;-1.59;76.68;100344.84;5031044;28;20046;-60
2021/12/13 09:52:58;;;;;;;48.92;13.95;;;;;;;-1.57;76.65;100342.72;5027235;28;20053;-61
2021/12/13 09:55:37;;;;;;;53.80;14.65;;;;;;;-1.52;76.54;100345.56;5033773;28;20527;-63
2021/12/13 09:58:15;;;;;;;43.33;13.93;;;;;;;-1.53;76.47;100343.91;5034016;28;20038;-62
2021/12/13 10:01:17;;;;;;;45.28;14.18;;;;;;;-1.62;76.71;100334.41;5034294;28;20054;-63
2021/12/13 10:03:56;;;;;;;35.35;12.60;;;;;;;-1.73;76.80;100332.47;5031938;28;20144;-62
2021/12/13 10:06:35;;;;;;;34.22;13.02;;;;;;;-1.79;76.78;100347.88;5033836;28;20550;-62
2021/12/13 10:09:12;;;;;;;53.60;14.23;;;;;;;-1.78;77.54;100340.53;5031852;28;20053;-62
2021/12/13 10:11:45;;;;;;;51.90;13.52;;;;;;;-1.70;76.63;100342.91;5034042;28;20084;-62
2021/12/13 10:14:15;;;;;;;46.28;14.20;;;;;;;-1.66;76.90;100344.13;5033725;28;20524;-62
2021/12/13 10:16:45;;;;;;;48.35;14.27;;;;;;;-1.67;76.71;100342.44;5033592;28;20468;-62
2021/12/13 10:19:19;;;;;;;51.50;14.07;;;;;;;-1.64;77.09;100347.44;5033956;28;20416;-62
2021/12/13 10:21:51;;;;;;;46.60;15.07;;;;;;;-1.63;76.56;100339.00;5033152;28;20069;-62
2021/12/13 10:24:25;;;;;;;44.72;14.65;;;;;;;-1.60;76.67;100337.75;5033527;28;20045;-63
2021/12/13 10:26:56;;;;;;;42.35;13.18;;;;;;;-1.67;76.50;100337.00;5033016;28;20046;-62
2021/12/13 10:29:41;;;;;;;35.88;11.70;;;;;;;-1.76;76.73;100343.84;5033164;28;20131;-62
2021/12/13 10:32:18;;;;;;;44.77;14.40;;;;;;;-1.83;76.99;100344.78;5028681;28;20048;-63
2021/12/13 10:34:50;;;;;;;41.70;12.88;;;;;;;-1.76;76.54;100336.50;5028181;28;20041;-63
2021/12/13 10:37:36;;;;;;;39.30;12.25;;;;;;;-1.69;76.45;100336.41;5024757;28;20042;-63
2021/12/13 10:40:06;;;;;;;48.55;13.77;;;;;;;-1.66;76.59;100344.13;5022951;28;20053;-62
2021/12/13 10:42:38;;;;;;;50.55;13.82;;;;;;;-1.66;76.29;100327.75;5031169;28;20080;-64
2021/12/13 10:45:14;;;;;;;41.13;13.93;;;;;;;-1.70;76.72;100323.81;5030328;28;20080;-63
2021/12/13 10:47:46;;;;;;;43.90;14.23;;;;;;;-1.63;76.56;100332.75;5024344;28;20057;-63
2021/12/13 10:50:19;;;;;;;42.97;14.77;;;;;;;-1.56;76.37;100331.56;5027377;28;20547;-64
2021/12/13 10:52:53;;;;;;;41.53;14.35;;;;;;;-1.51;76.12;100330.88;5020659;28;20049;-64
2021/12/13 10:55:34;;;;;;;46.00;14.30;;;;;;;-1.49;76.12;100331.44;5029405;28;20071;-64
2021/12/13 10:58:03;;;;;;;51.05;16.55;;;;;;;-1.46;76.16;100334.53;5020644;28;20417;-64
2021/12/13 11:00:44;;;;;;;43.58;14.07;;;;;;;-1.43;76.16;100338.69;5040627;28;20064;-62
2021/12/13 11:03:22;;;;;;;48.40;14.15;;;;;;;-1.46;76.16;100328.25;5019265;28;20050;-63
2021/12/13 11:05:55;;;;;;;52.38;15.35;;;;;;;-1.46;76.35;100333.69;5019568;28;20128;-67
2021/12/13 11:08:24;;;;;;;40.40;13.30;;;;;;;-1.52;76.27;100338.22;5027718;28;20144;-62
2021/12/13 11:10:55;;;;;;;40.33;13.77;;;;;;;-1.53;76.31;100346.63;5025338;28;20041;-62
2021/12/13 11:13:27;;;;;;;45.90;15.13;;;;;;;-1.47;76.18;100340.25;5027219;28;20449;-63
2021/12/13 11:16:01;;;;;;;47.92;14.93;;;;;;;-1.54;76.26;100343.06;5027872;28;20072;-64
2021/12/13 11:18:31;;;;;;;45.17;14.52;;;;;;;-1.53;76.12;100341.19;5020293;28;20057;-64
2021/12/13 11:21:09;;;;;;;42.38;14.00;;;;;;;-1.55;75.88;100333.22;5025751;28;20447;-63
2021/12/13 11:23:36;;;;;;;37.25;12.32;;;;;;;-1.54;76.12;100339.53;5022324;28;20046;-63
2021/12/13 11:26:08;;;;;;;38.33;13.65;;;;;;;-1.52;75.98;100340.09;5025256;28;20100;-63
2021/12/13 11:28:36;;;;;;;32.55;12.98;;;;;;;-1.55;76.18;100335.13;5020718;28;20045;-63
2021/12/13 11:31:29;;;;;;;36.15;13.13;;;;;;;-1.54;76.20;100331.34;5032210;28;20140;-63
2021/12/13 11:34:04;;;;;;;45.47;14.05;;;;;;;-1.58;76.11;100321.94;5023493;28;20065;-64
2021/12/13 11:37:08;;;;;;;34.70;12.38;;;;;;;-1.58;76.46;100327.41;5020971;28;20067;-62
2021/12/13 11:40:09;;;;;;;38.30;12.85;;;;;;;-1.61;76.59;100327.88;5023012;28;20053;-64
2021/12/13 11:43:13;;;;;;;37.28;12.63;;;;;;;-1.56;76.61;100312.47;5031836;28;20049;-64
2021/12/13 11:46:05;;;;;;;34.20;13.35;;;;;;;-1.50;76.23;100308.81;5050100;28;20131;-65
2021/12/13 11:48:48;;;;;;;36.22;12.57;;;;;;;-1.42;76.15;100300.25;5048226;28;20041;-60
2021/12/13 11:51:54;;;;;;;38.15;12.38;;;;;;;-1.33;75.92;100295.28;5048841;28;20140;-59
2021/12/13 11:54:52;;;;;;;36.40;10.93;;;;;;;-1.34;75.95;100288.16;5030559;28;20047;-59
2021/12/13 11:57:56;;;;;;;38.63;11.80;;;;;;;-1.29;75.95;100296.47;5031863;28;20052;-59
2021/12/13 12:00:41;;;;;;;37.00;13.02;;;;;;;-1.38;76.00;100293.28;5031727;28;20049;-60
2021/12/13 12:03:45;;;;;;;30.02;10.82;;;;;;;-1.31;75.68;100298.59;5031671;28;20053;-60